createdAt,value
2023-02-24T00:02:15.209Z,5.48
2023-02-24T00:04:44.225Z,5.48
2023-02-24T00:07:14.096Z,5.55
2023-02-24T00:09:45.194Z,5.59
2023-02-24T00:12:17.061Z,5.62
2023-02-24T00:14:47.345Z,5.62
2023-02-24T00:17:15.778Z,5.66
2023-02-24T00:19:46.397Z,5.66
2023-02-24T00:22:15.075Z,5.67
2023-02-24T00:24:44.765Z,5.64
2023-02-24T00:27:13.783Z,5.64
2023-02-24T00:29:47.460Z,5.60
2023-02-24T00:32:16.036Z,5.53
2023-02-24T00:34:44.570Z,5.47
2023-02-24T00:37:15.511Z,5.48
2023-02-24T00:39:48.060Z,5.50
2023-02-24T00:42:16.787Z,5.54
2023-02-24T00:44:48.009Z,5.57
2023-02-24T00:47:18.696Z,5.61
2023-02-24T00:49:48.289Z,5.59
2023-02-24T00:52:20.112Z,5.72
2023-02-24T00:54:51.233Z,5.82
2023-02-24T00:57:21.531Z,5.83
2023-02-24T00:59:52.715Z,5.82
2023-02-24T01:02:21.586Z,5.91
2023-02-24T01:04:54.219Z,5.87
2023-02-24T01:07:23.274Z,5.82
2023-02-24T01:09:54.534Z,5.62
2023-02-24T01:12:41.803Z,5.45
2023-02-24T01:15:12.673Z,5.33
2023-02-24T01:17:44.263Z,5.29
2023-02-24T01:20:18.416Z,5.30
2023-02-24T01:22:50.232Z,5.26
2023-02-24T01:25:21.680Z,5.26
2023-02-24T01:27:50.902Z,5.33
2023-02-24T01:30:20.694Z,5.37
2023-02-24T01:32:49.609Z,5.42
2023-02-24T01:35:18.764Z,5.41
2023-02-24T01:37:47.225Z,5.45
2023-02-24T01:40:21.245Z,5.50
2023-02-24T01:42:53.018Z,5.55
2023-02-24T01:45:26.571Z,5.50
2023-02-24T01:48:00.185Z,5.39
2023-02-24T01:50:30.453Z,5.31
2023-02-24T01:53:04.016Z,5.28
2023-02-24T01:55:39.257Z,5.29
2023-02-24T01:58:20.150Z,5.36
2023-02-24T02:00:49.146Z,5.34
2023-02-24T02:03:33.217Z,5.39
2023-02-24T02:06:05.529Z,5.46
2023-02-24T02:08:37.136Z,5.56
2023-02-24T02:11:10.000Z,5.59
2023-02-24T02:13:45.326Z,5.56
2023-02-24T02:16:54.469Z,5.50
2023-02-24T02:20:17.802Z,5.39
2023-02-24T02:23:37.668Z,5.36
2023-02-24T02:26:35.880Z,5.28
2023-02-24T02:30:01.204Z,5.22
2023-02-24T02:33:02.232Z,5.23
2023-02-24T02:35:37.949Z,5.22
2023-02-24T02:38:15.846Z,5.23
2023-02-24T02:40:53.866Z,5.26
2023-02-24T02:43:37.285Z,5.28
2023-02-24T02:46:14.936Z,5.33
2023-02-24T02:48:53.800Z,5.46
2023-02-24T02:51:38.904Z,5.53
2023-02-24T02:54:18.340Z,5.62
2023-02-24T02:56:55.345Z,5.61
2023-02-24T02:59:30.383Z,5.63
2023-02-24T03:02:11.810Z,5.61
2023-02-24T03:04:48.155Z,5.57
2023-02-24T03:07:21.105Z,5.54
2023-02-24T03:09:58.260Z,5.51
2023-02-24T03:12:32.742Z,5.51
2023-02-24T03:15:07.865Z,5.50
2023-02-24T03:17:47.463Z,5.50
2023-02-24T03:20:29.290Z,5.50
2023-02-24T03:23:06.419Z,5.49
2023-02-24T03:25:48.070Z,5.45
2023-02-24T03:28:25.564Z,5.44
2023-02-24T03:31:03.805Z,5.44
2023-02-24T03:33:41.045Z,5.46
2023-02-24T03:36:10.700Z,5.50
2023-02-24T03:38:41.441Z,5.53
2023-02-24T03:41:11.822Z,5.53
2023-02-24T03:43:47.681Z,5.51
2023-02-24T03:46:18.059Z,5.57
2023-02-24T03:48:55.751Z,5.57
2023-02-24T03:51:24.644Z,5.55
2023-02-24T03:54:15.751Z,5.54
2023-02-24T03:57:00.120Z,5.52
2023-02-24T03:59:46.400Z,5.51
2023-02-24T04:02:23.609Z,5.47
2023-02-24T04:05:01.329Z,5.47
2023-02-24T04:07:52.308Z,5.51
2023-02-24T04:10:32.778Z,5.53
2023-02-24T04:13:14.458Z,5.52
2023-02-24T04:15:48.978Z,5.56
2023-02-24T04:18:22.299Z,5.55
2023-02-24T04:20:53.533Z,5.56
2023-02-24T04:23:33.642Z,5.59
2023-02-24T04:26:04.385Z,5.59
2023-02-24T04:28:35.046Z,5.64
2023-02-24T04:31:10.771Z,5.65
2023-02-24T04:33:41.208Z,5.67
2023-02-24T04:36:13.191Z,5.68
2023-02-24T04:38:43.152Z,5.66
2023-02-24T04:41:14.315Z,5.64
2023-02-24T04:43:42.878Z,5.62
2023-02-24T04:46:13.527Z,5.62
2023-02-24T04:48:42.003Z,5.59
2023-02-24T04:51:10.431Z,5.58
2023-02-24T04:53:38.868Z,5.62
2023-02-24T04:56:09.411Z,5.63
2023-02-24T04:58:42.693Z,5.63
2023-02-24T05:01:12.746Z,5.64
2023-02-24T05:03:43.407Z,5.69
2023-02-24T05:06:18.697Z,5.70
2023-02-24T05:08:47.218Z,5.71
2023-02-24T05:11:18.436Z,5.74
2023-02-24T05:13:48.865Z,5.74
2023-02-24T05:16:20.493Z,5.76
2023-02-24T05:18:49.118Z,5.80
2023-02-24T05:21:36.142Z,5.80
2023-02-24T05:24:06.974Z,5.80
2023-02-24T05:26:38.207Z,5.74
2023-02-24T05:29:09.407Z,5.68
2023-02-24T05:31:38.375Z,5.66
2023-02-24T05:34:09.271Z,5.60
2023-02-24T05:36:41.334Z,5.62
2023-02-24T05:39:12.510Z,5.59
2023-02-24T05:41:44.404Z,5.58
2023-02-24T05:44:16.712Z,5.58
2023-02-24T05:46:51.112Z,5.60
2023-02-24T05:49:24.250Z,5.59
2023-02-24T05:51:58.025Z,5.61
2023-02-24T05:54:29.499Z,5.58
2023-02-24T05:57:01.353Z,5.56
2023-02-24T05:59:33.027Z,5.56
2023-02-24T06:02:07.149Z,5.57
2023-02-24T06:04:50.944Z,5.55
2023-02-24T06:07:26.515Z,5.58
2023-02-24T06:09:57.831Z,5.53
2023-02-24T06:12:29.856Z,5.55
2023-02-24T06:15:00.387Z,5.52
2023-02-24T06:17:33.132Z,5.50
2023-02-24T06:20:01.493Z,5.51
2023-02-24T06:22:29.906Z,5.51
2023-02-24T06:24:58.279Z,5.58
2023-02-24T06:27:27.167Z,5.57
2023-02-24T06:29:57.641Z,5.60
2023-02-24T06:32:28.175Z,5.60
2023-02-24T06:34:59.532Z,5.62
2023-02-24T06:37:30.048Z,5.64
2023-02-24T06:39:58.545Z,5.62
2023-02-24T06:42:27.455Z,5.69
2023-02-24T06:44:56.406Z,5.71
2023-02-24T06:47:27.106Z,5.71
2023-02-24T06:49:55.457Z,5.73
2023-02-24T06:52:26.457Z,5.65
2023-02-24T06:54:54.861Z,5.67
2023-02-24T06:57:23.652Z,5.73
2023-02-24T06:59:52.360Z,5.71
2023-02-24T07:02:20.779Z,5.71
2023-02-24T07:04:50.700Z,5.80
2023-02-24T07:07:19.929Z,5.84
2023-02-24T07:09:48.203Z,5.90
2023-02-24T07:12:21.123Z,5.94
2023-02-24T07:14:50.922Z,6.01
2023-02-24T07:17:21.006Z,6.02
2023-02-24T07:19:50.821Z,6.02
2023-02-24T07:22:25.537Z,5.98
2023-02-24T07:25:00.502Z,5.95
2023-02-24T07:27:29.220Z,5.95
2023-02-24T07:29:59.280Z,6.01
2023-02-24T07:32:28.928Z,5.97
2023-02-24T07:34:59.684Z,5.93
2023-02-24T07:37:31.898Z,6.03
2023-02-24T07:40:00.270Z,6.12
2023-02-24T07:42:30.679Z,6.20
2023-02-24T07:44:59.111Z,6.28
2023-02-24T07:47:27.751Z,6.30
2023-02-24T07:50:00.421Z,6.29
2023-02-24T07:52:32.562Z,6.21
2023-02-24T07:55:00.833Z,6.18
2023-02-24T07:57:29.204Z,6.17
2023-02-24T07:59:57.584Z,6.30
2023-02-24T08:02:26.285Z,6.30
2023-02-24T08:04:54.906Z,6.37
2023-02-24T08:07:30.435Z,6.51
2023-02-24T08:10:24.396Z,6.49
2023-02-24T08:12:55.595Z,6.46
2023-02-24T08:15:26.538Z,6.54
2023-02-24T08:17:59.637Z,6.35
2023-02-24T08:20:36.229Z,6.47
2023-02-24T08:23:08.722Z,6.66
2023-02-24T08:25:38.514Z,6.68
2023-02-24T08:28:11.796Z,6.70
2023-02-24T08:30:46.070Z,6.70
2023-02-24T08:33:23.549Z,6.66
2023-02-24T08:36:01.814Z,6.50
2023-02-24T08:38:45.419Z,6.66
2023-02-24T08:41:20.358Z,6.67
2023-02-24T08:43:50.389Z,6.72
2023-02-24T08:46:26.578Z,6.66
2023-02-24T08:49:00.683Z,6.61
2023-02-24T08:51:35.094Z,6.60
2023-02-24T08:54:11.406Z,6.66
2023-02-24T08:56:43.808Z,6.69
2023-02-24T08:59:29.280Z,6.89
2023-02-24T09:02:14.061Z,6.75
2023-02-24T09:04:44.978Z,6.63
2023-02-24T09:07:20.847Z,6.55
2023-02-24T09:09:49.540Z,6.55
2023-02-24T09:12:25.769Z,6.66
2023-02-24T09:15:01.101Z,6.72
2023-02-24T09:17:51.051Z,6.73
2023-02-24T09:20:51.833Z,6.94
2023-02-24T09:23:21.166Z,7.08
2023-02-24T09:25:54.492Z,6.83
2023-02-24T09:28:27.120Z,6.53
2023-02-24T09:30:58.625Z,6.69
2023-02-24T09:33:29.497Z,6.78
2023-02-24T09:36:14.326Z,6.88
2023-02-24T09:38:59.866Z,6.96
2023-02-24T09:41:54.025Z,6.88
2023-02-24T09:44:35.004Z,6.94
2023-02-24T09:47:20.163Z,6.98
2023-02-24T09:49:56.406Z,7.03
2023-02-24T09:52:39.778Z,7.13
2023-02-24T09:55:29.560Z,7.24
2023-02-24T09:58:34.785Z,7.15
2023-02-24T10:01:33.562Z,7.24
2023-02-24T10:04:20.770Z,7.29
2023-02-24T10:06:51.922Z,7.39
2023-02-24T10:09:27.089Z,7.29
2023-02-24T10:12:04.662Z,7.28
2023-02-24T10:14:44.725Z,7.40
2023-02-24T10:17:24.446Z,7.54
2023-02-24T10:20:01.197Z,7.47
2023-02-24T10:22:50.841Z,7.37
2023-02-24T10:25:41.197Z,7.42
2023-02-24T10:28:35.737Z,7.45
2023-02-24T10:31:36.844Z,7.33
2023-02-24T10:34:12.654Z,7.58
2023-02-24T10:36:41.873Z,7.58
2023-02-24T10:39:20.466Z,7.58
2023-02-24T10:41:57.506Z,7.49
2023-02-24T10:44:36.147Z,7.63
2023-02-24T10:47:14.271Z,7.62
2023-02-24T10:49:57.190Z,7.55
2023-02-24T10:52:51.100Z,7.45
2023-02-24T10:55:53.573Z,7.54
2023-02-24T10:58:37.804Z,7.86
2023-02-24T11:01:18.172Z,8.01
2023-02-24T11:04:09.784Z,8.07
2023-02-24T11:06:52.758Z,7.73
2023-02-24T11:09:44.133Z,7.51
2023-02-24T11:12:38.241Z,7.48
2023-02-24T11:15:37.336Z,7.27
2023-02-24T11:18:08.820Z,7.29
2023-02-24T11:20:49.344Z,7.23
2023-02-24T11:23:25.945Z,7.22
2023-02-24T11:26:00.882Z,7.24
2023-02-24T11:28:48.929Z,7.31
2023-02-24T11:31:56.098Z,7.31
2023-02-24T11:34:34.224Z,7.42
2023-02-24T11:37:24.379Z,7.53
2023-02-24T11:40:01.939Z,7.61
2023-02-24T11:42:42.048Z,7.50
2023-02-24T11:45:26.408Z,7.57
2023-02-24T11:48:04.908Z,7.61
2023-02-24T11:50:48.604Z,7.60
2023-02-24T11:53:31.426Z,7.51
2023-02-24T11:56:07.905Z,7.58
2023-02-24T11:58:44.309Z,7.60
2023-02-24T12:01:22.401Z,7.45
2023-02-24T12:04:02.923Z,7.45
2023-02-24T12:06:39.216Z,7.56
2023-02-24T12:09:18.940Z,7.49
2023-02-24T12:12:03.389Z,7.53
2023-02-24T12:14:39.797Z,7.77
2023-02-24T12:17:19.245Z,7.82
2023-02-24T12:20:05.665Z,7.85
2023-02-24T12:22:46.542Z,7.78
2023-02-24T12:25:16.836Z,7.87
2023-02-24T12:28:10.966Z,7.92
2023-02-24T12:31:12.531Z,7.89
2023-02-24T12:33:58.702Z,7.85
2023-02-24T12:37:01.692Z,7.92
2023-02-24T12:39:39.460Z,7.98
2023-02-24T12:42:22.566Z,7.87
2023-02-24T12:45:02.526Z,7.78
2023-02-24T12:47:51.592Z,7.76
2023-02-24T12:50:45.805Z,7.50
2023-02-24T12:53:23.856Z,7.49
2023-02-24T12:56:07.386Z,7.53
2023-02-24T12:58:40.982Z,7.54
2023-02-24T13:01:23.471Z,7.52
2023-02-24T13:04:13.879Z,7.39
2023-02-24T13:07:06.224Z,7.40
2023-02-24T13:09:47.133Z,7.43
2023-02-24T13:12:28.329Z,7.35
2023-02-24T13:14:57.557Z,7.36
2023-02-24T13:17:28.251Z,7.36
2023-02-24T13:20:10.931Z,7.53
2023-02-24T13:22:44.704Z,7.78
2023-02-24T13:25:23.601Z,7.87
2023-02-24T13:28:08.167Z,7.75
2023-02-24T13:30:45.065Z,7.84
2023-02-24T13:33:29.806Z,7.96
2023-02-24T13:36:14.343Z,8.39
2023-02-24T13:38:46.128Z,8.42
2023-02-24T13:41:41.811Z,8.49
2023-02-24T13:44:27.546Z,8.62
2023-02-24T13:47:47.739Z,8.97
2023-02-24T13:50:26.261Z,8.98
2023-02-24T13:53:29.715Z,8.55
2023-02-24T13:56:25.954Z,8.60
2023-02-24T13:59:18.217Z,8.59
2023-02-24T14:01:53.107Z,8.97
2023-02-24T14:04:29.308Z,8.94
2023-02-24T14:07:05.845Z,9.05
2023-02-24T14:09:40.771Z,9.41
2023-02-24T14:12:16.574Z,9.12
2023-02-24T14:14:47.050Z,8.74
2023-02-24T14:17:28.843Z,9.02
2023-02-24T14:20:09.801Z,9.55
2023-02-24T14:22:46.122Z,9.29
2023-02-24T14:25:15.816Z,8.75
2023-02-24T14:27:47.357Z,8.51
2023-02-24T14:30:32.716Z,8.46
2023-02-24T14:33:03.627Z,8.39
2023-02-24T14:35:38.615Z,8.41
2023-02-24T14:38:27.888Z,8.29
2023-02-24T14:40:56.281Z,8.25
2023-02-24T14:43:25.191Z,8.22
2023-02-24T14:45:57.611Z,8.26
2023-02-24T14:48:28.996Z,8.23
2023-02-24T14:51:03.039Z,8.25
2023-02-24T14:53:39.913Z,8.25
2023-02-24T14:56:13.610Z,8.25
2023-02-24T14:58:48.723Z,8.21
2023-02-24T15:01:25.613Z,8.24
2023-02-24T15:04:02.147Z,8.21
2023-02-24T15:06:40.720Z,8.15
2023-02-24T15:09:17.384Z,8.13
2023-02-24T15:11:46.411Z,8.15
2023-02-24T15:14:24.506Z,8.09
2023-02-24T15:16:58.015Z,8.07
2023-02-24T15:19:32.571Z,8.04
2023-02-24T15:22:01.643Z,8.05
2023-02-24T15:24:35.119Z,7.95
2023-02-24T15:27:22.244Z,7.93
2023-02-24T15:30:05.697Z,7.92
2023-02-24T15:32:38.680Z,7.99
2023-02-24T15:35:08.730Z,7.94
2023-02-24T15:37:44.760Z,7.89
2023-02-24T15:40:23.296Z,7.83
2023-02-24T15:42:55.445Z,7.84
2023-02-24T15:45:30.187Z,7.81
2023-02-24T15:48:01.420Z,7.81
2023-02-24T15:50:32.952Z,7.83
2023-02-24T15:53:05.416Z,7.86
2023-02-24T15:55:35.139Z,7.85
2023-02-24T15:58:05.506Z,7.84
2023-02-24T16:00:33.955Z,7.86
2023-02-24T16:03:02.552Z,7.88
2023-02-24T16:05:30.918Z,7.81
2023-02-24T16:07:59.508Z,7.81
2023-02-24T16:10:31.087Z,7.79
2023-02-24T16:13:03.139Z,7.79
2023-02-24T16:15:35.644Z,7.77
2023-02-24T16:18:04.100Z,7.77
2023-02-24T16:20:34.101Z,7.76
2023-02-24T16:23:06.388Z,7.71
2023-02-24T16:25:41.283Z,7.73
2023-02-24T16:28:16.539Z,7.77
2023-02-24T16:30:46.636Z,7.73
2023-02-24T16:33:16.483Z,7.65
2023-02-24T16:35:45.537Z,7.72
2023-02-24T16:38:16.830Z,7.61
2023-02-24T16:40:48.639Z,7.59
2023-02-24T16:43:19.810Z,7.51
2023-02-24T16:45:48.953Z,7.48
2023-02-24T16:48:22.709Z,7.47
2023-02-24T16:50:51.708Z,7.36
2023-02-24T16:53:28.003Z,7.32
2023-02-24T16:55:56.333Z,7.28
2023-02-24T16:58:26.166Z,7.20
2023-02-24T17:01:03.445Z,7.22
2023-02-24T17:03:43.700Z,7.20
2023-02-24T17:06:12.152Z,7.27
2023-02-24T17:08:41.621Z,7.24
2023-02-24T17:11:14.343Z,7.15
2023-02-24T17:13:44.748Z,7.16
2023-02-24T17:16:14.566Z,7.12
2023-02-24T17:18:43.134Z,7.05
2023-02-24T17:21:14.558Z,7.08
2023-02-24T17:23:43.604Z,7.02
2023-02-24T17:26:16.154Z,7.05
2023-02-24T17:28:46.254Z,7.03
2023-02-24T17:31:15.153Z,7.02
2023-02-24T17:33:43.491Z,7.03
2023-02-24T17:36:11.820Z,6.98
2023-02-24T17:38:40.094Z,7.02
2023-02-24T17:41:08.585Z,6.97
2023-02-24T17:43:37.257Z,7.00
2023-02-24T17:46:07.587Z,7.02
2023-02-24T17:48:36.325Z,7.01
2023-02-24T17:51:05.008Z,7.02
2023-02-24T17:53:33.381Z,6.91
2023-02-24T17:56:06.800Z,6.84
2023-02-24T17:58:36.122Z,6.90
2023-02-24T18:01:07.854Z,6.89
2023-02-24T18:03:37.524Z,6.82
2023-02-24T18:06:09.456Z,6.79
2023-02-24T18:08:40.562Z,6.76
2023-02-24T18:11:13.850Z,6.71
2023-02-24T18:13:42.205Z,6.73
2023-02-24T18:16:16.065Z,6.70
2023-02-24T18:18:45.893Z,6.69
2023-02-24T18:21:14.198Z,6.60
2023-02-24T18:23:42.626Z,6.50
2023-02-24T18:26:13.815Z,6.45
2023-02-24T18:28:42.402Z,6.33
2023-02-24T18:31:27.377Z,6.21
2023-02-24T18:33:58.067Z,6.18
2023-02-24T18:36:27.414Z,6.13
2023-02-24T18:38:58.685Z,6.09
2023-02-24T18:41:27.836Z,6.05
2023-02-24T18:43:59.168Z,6.05
2023-02-24T18:46:29.881Z,6.05
2023-02-24T18:48:59.002Z,6.02
2023-02-24T18:51:29.057Z,5.95
2023-02-24T18:54:00.438Z,5.94
2023-02-24T18:56:32.085Z,5.91
2023-02-24T18:59:02.502Z,5.89
2023-02-24T19:01:34.571Z,5.94
2023-02-24T19:04:04.153Z,5.95
2023-02-24T19:06:34.694Z,5.93
2023-02-24T19:09:09.742Z,5.98
2023-02-24T19:11:39.485Z,5.96
2023-02-24T19:14:11.984Z,5.93
2023-02-24T19:16:42.600Z,5.99
2023-02-24T19:19:14.912Z,5.97
2023-02-24T19:21:45.503Z,5.96
2023-02-24T19:24:14.303Z,6.00
2023-02-24T19:26:46.081Z,5.98
2023-02-24T19:29:17.663Z,5.92
2023-02-24T19:31:54.102Z,6.00
2023-02-24T19:34:22.773Z,5.95
2023-02-24T19:36:51.227Z,5.98
2023-02-24T19:39:20.114Z,6.00
2023-02-24T19:41:49.758Z,5.94
2023-02-24T19:44:18.186Z,5.94
2023-02-24T19:46:47.888Z,5.92
2023-02-24T19:49:16.156Z,5.93
2023-02-24T19:51:46.638Z,5.85
2023-02-24T19:54:16.499Z,5.90
2023-02-24T19:56:45.216Z,5.87
2023-02-24T19:59:13.627Z,5.82
2023-02-24T20:01:42.803Z,5.79
2023-02-24T20:04:13.028Z,5.82
2023-02-24T20:06:44.043Z,5.82
2023-02-24T20:09:17.655Z,5.76
2023-02-24T20:11:47.856Z,5.74
2023-02-24T20:14:18.485Z,5.78
2023-02-24T20:16:48.518Z,5.75
2023-02-24T20:19:18.620Z,5.75
2023-02-24T20:21:50.031Z,5.71
2023-02-24T20:24:22.986Z,5.62
2023-02-24T20:26:51.360Z,5.65
2023-02-24T20:29:22.503Z,5.67
2023-02-24T20:31:51.693Z,5.71
2023-02-24T20:34:22.065Z,5.67
2023-02-24T20:36:50.467Z,5.66
2023-02-24T20:39:18.935Z,5.74
2023-02-24T20:41:47.251Z,5.81
2023-02-24T20:44:15.638Z,5.82
2023-02-24T20:46:45.172Z,5.72
2023-02-24T20:49:15.693Z,5.19
2023-02-24T20:51:45.618Z,4.80
2023-02-24T20:54:15.735Z,4.60
2023-02-24T20:56:46.682Z,4.55
2023-02-24T20:59:18.125Z,4.50
2023-02-24T21:01:48.679Z,4.52
2023-02-24T21:04:21.311Z,4.46
2023-02-24T21:06:52.034Z,4.47
2023-02-24T21:09:20.718Z,4.47
2023-02-24T21:11:49.125Z,4.52
2023-02-24T21:14:18.570Z,4.51
2023-02-24T21:16:47.133Z,4.49
2023-02-24T21:19:17.890Z,4.50
2023-02-24T21:21:46.364Z,4.38
2023-02-24T21:24:19.674Z,4.41
2023-02-24T21:26:48.722Z,4.46
2023-02-24T21:29:17.473Z,4.42
2023-02-24T21:31:50.284Z,4.31
2023-02-24T21:34:19.120Z,4.23
2023-02-24T21:36:47.537Z,4.21
2023-02-24T21:39:18.100Z,4.18
2023-02-24T21:41:49.720Z,4.20
2023-02-24T21:44:18.149Z,4.16
2023-02-24T21:46:46.874Z,4.08
2023-02-24T21:49:15.418Z,4.05
2023-02-24T21:51:43.846Z,4.07
2023-02-24T21:54:14.326Z,4.06
2023-02-24T21:56:44.102Z,3.83
2023-02-24T21:59:12.819Z,3.59
2023-02-24T22:01:44.420Z,3.41
2023-02-24T22:04:17.196Z,3.42
2023-02-24T22:06:46.298Z,3.17
2023-02-24T22:09:19.469Z,3.10
2023-02-24T22:11:51.291Z,2.97
2023-02-24T22:14:20.516Z,2.90
2023-02-24T22:16:48.911Z,2.81
2023-02-24T22:19:19.120Z,2.89
2023-02-24T22:21:47.857Z,2.90
2023-02-24T22:24:19.195Z,2.74
2023-02-24T22:26:49.319Z,2.79
2023-02-24T22:29:21.686Z,2.64
2023-02-24T22:31:50.346Z,2.64
2023-02-24T22:34:19.338Z,2.68
2023-02-24T22:36:48.062Z,2.62
2023-02-24T22:39:17.110Z,2.58
2023-02-24T22:41:47.591Z,2.50
2023-02-24T22:44:19.332Z,2.51
2023-02-24T22:46:48.964Z,2.49
2023-02-24T22:49:18.511Z,2.43
2023-02-24T22:51:46.932Z,2.54
2023-02-24T22:54:15.750Z,2.50
2023-02-24T22:56:44.634Z,2.48
2023-02-24T22:59:14.131Z,2.55
2023-02-24T23:01:44.145Z,2.55
2023-02-24T23:04:18.212Z,2.54
2023-02-24T23:06:47.598Z,2.56
2023-02-24T23:09:19.887Z,2.49
2023-02-24T23:11:49.691Z,2.55
2023-02-24T23:14:18.297Z,2.56
2023-02-24T23:16:53.695Z,2.55
2023-02-24T23:19:23.123Z,2.51
2023-02-24T23:21:54.218Z,2.52
2023-02-24T23:24:24.143Z,2.56
2023-02-24T23:26:57.678Z,2.53
2023-02-24T23:29:30.787Z,2.56
2023-02-24T23:32:00.657Z,2.61
2023-02-24T23:34:32.853Z,2.60
2023-02-24T23:37:01.202Z,2.60
2023-02-24T23:39:29.602Z,2.63
2023-02-24T23:41:57.935Z,2.54
2023-02-24T23:44:26.755Z,2.58
2023-02-24T23:46:58.163Z,2.63
2023-02-24T23:49:39.084Z,2.49
2023-02-24T23:52:14.884Z,2.49
2023-02-24T23:54:43.630Z,2.61
2023-02-24T23:57:12.330Z,2.60
2023-02-24T23:59:40.788Z,2.75
